createdAt,value
2022-10-19T00:00:24.251Z,0.00
2022-10-19T00:01:24.255Z,0.00
2022-10-19T00:02:24.328Z,0.00
2022-10-19T00:03:24.232Z,0.00
2022-10-19T00:04:24.223Z,0.00
2022-10-19T00:05:24.218Z,0.00
2022-10-19T00:06:24.234Z,0.00
2022-10-19T00:07:24.195Z,0.00
2022-10-19T00:08:24.203Z,0.00
2022-10-19T00:09:24.186Z,0.00
2022-10-19T00:10:24.175Z,0.00
2022-10-19T00:11:24.194Z,0.00
2022-10-19T00:12:24.179Z,0.00
2022-10-19T00:13:24.160Z,0.00
2022-10-19T00:14:24.153Z,0.00
2022-10-19T00:15:24.144Z,0.00
2022-10-19T00:16:24.139Z,0.00
2022-10-19T00:17:24.156Z,0.00
2022-10-19T00:18:24.159Z,0.00
2022-10-19T00:19:24.126Z,0.00
2022-10-19T00:20:24.125Z,0.00
2022-10-19T00:21:24.109Z,0.00
2022-10-19T00:22:24.107Z,0.00
2022-10-19T00:23:24.085Z,0.00
2022-10-19T00:24:24.104Z,0.00
2022-10-19T00:25:24.067Z,0.00
2022-10-19T00:26:24.070Z,0.00
2022-10-19T00:27:24.072Z,0.00
2022-10-19T00:28:24.062Z,0.00
2022-10-19T00:29:24.043Z,0.00
2022-10-19T00:30:24.043Z,0.00
2022-10-19T00:31:24.036Z,0.00
2022-10-19T00:32:24.028Z,0.00
2022-10-19T00:33:24.039Z,0.00
2022-10-19T00:34:24.015Z,0.00
2022-10-19T00:35:24.002Z,0.00
2022-10-19T00:36:24.007Z,0.00
2022-10-19T00:37:23.999Z,0.00
2022-10-19T00:38:23.991Z,0.00
2022-10-19T00:39:23.995Z,0.00
2022-10-19T00:40:23.977Z,0.00
2022-10-19T00:41:23.959Z,0.00
2022-10-19T00:42:23.960Z,0.00
2022-10-19T00:43:23.951Z,0.00
2022-10-19T00:44:23.968Z,0.00
2022-10-19T00:45:23.940Z,0.00
2022-10-19T00:46:23.937Z,0.00
2022-10-19T00:47:23.920Z,0.00
2022-10-19T00:48:23.926Z,0.00
2022-10-19T00:49:23.923Z,0.00
2022-10-19T00:50:23.903Z,0.00
2022-10-19T00:51:23.900Z,0.00
2022-10-19T00:52:23.892Z,0.00
2022-10-19T00:53:23.887Z,0.00
2022-10-19T00:54:23.878Z,0.00
2022-10-19T00:55:23.879Z,0.00
2022-10-19T00:56:23.872Z,0.00
2022-10-19T00:57:23.876Z,0.00
2022-10-19T00:58:23.859Z,0.00
2022-10-19T00:59:23.849Z,0.00
2022-10-19T01:00:23.853Z,0.00
2022-10-19T01:01:23.907Z,0.00
2022-10-19T01:02:23.843Z,0.00
2022-10-19T01:03:23.819Z,0.00
2022-10-19T01:04:23.806Z,0.00
2022-10-19T01:05:23.804Z,0.00
2022-10-19T01:06:23.810Z,0.00
2022-10-19T01:07:23.791Z,0.00
2022-10-19T01:08:23.791Z,0.00
2022-10-19T01:09:23.751Z,0.00
2022-10-19T01:10:23.767Z,0.00
2022-10-19T01:11:23.775Z,0.00
2022-10-19T01:12:23.776Z,0.00
2022-10-19T01:13:23.750Z,0.00
2022-10-19T01:14:23.739Z,0.00
2022-10-19T01:15:23.719Z,0.00
2022-10-19T01:16:23.729Z,0.00
2022-10-19T01:17:23.728Z,0.00
2022-10-19T01:18:23.712Z,0.00
2022-10-19T01:19:23.699Z,0.00
2022-10-19T01:20:23.696Z,0.00
2022-10-19T01:21:23.683Z,0.00
2022-10-19T01:22:23.702Z,0.00
2022-10-19T01:23:23.684Z,0.00
2022-10-19T01:24:23.677Z,0.00
2022-10-19T01:25:23.659Z,0.00
2022-10-19T01:26:23.659Z,0.00
2022-10-19T01:27:23.659Z,0.00
2022-10-19T01:28:23.631Z,0.00
2022-10-19T01:29:23.663Z,0.00
2022-10-19T01:30:23.639Z,0.00
2022-10-19T01:31:23.615Z,0.00
2022-10-19T01:32:23.615Z,0.00
2022-10-19T01:33:23.615Z,0.00
2022-10-19T01:34:23.615Z,0.00
2022-10-19T01:35:23.612Z,0.00
2022-10-19T01:36:23.594Z,0.00
2022-10-19T01:37:23.579Z,0.00
2022-10-19T01:38:23.594Z,0.00
2022-10-19T01:39:23.566Z,0.00
2022-10-19T01:40:23.555Z,0.00
2022-10-19T01:41:23.546Z,0.00
2022-10-19T01:42:23.543Z,0.00
2022-10-19T01:43:23.554Z,0.00
2022-10-19T01:44:23.531Z,0.00
2022-10-19T01:45:23.530Z,0.00
2022-10-19T01:46:23.522Z,0.00
2022-10-19T01:47:23.518Z,0.00
2022-10-19T01:48:23.507Z,0.00
2022-10-19T01:49:23.500Z,0.00
2022-10-19T01:50:23.490Z,0.00
2022-10-19T01:51:23.511Z,0.00
2022-10-19T01:52:23.479Z,0.00
2022-10-19T01:53:23.479Z,0.00
2022-10-19T01:54:23.476Z,0.00
2022-10-19T01:55:23.476Z,0.00
2022-10-19T01:56:23.438Z,0.00
2022-10-19T01:57:23.461Z,0.00
2022-10-19T01:58:23.461Z,0.00
2022-10-19T01:59:23.438Z,0.00
2022-10-19T02:00:23.434Z,0.00
2022-10-19T02:01:23.425Z,0.00
2022-10-19T02:02:23.434Z,0.00
2022-10-19T02:03:23.414Z,0.00
2022-10-19T02:04:23.393Z,0.00
2022-10-19T02:05:23.464Z,0.00
2022-10-19T02:06:23.395Z,0.00
2022-10-19T02:07:23.430Z,0.00
2022-10-19T02:08:23.370Z,0.00
2022-10-19T02:09:23.387Z,0.00
2022-10-19T02:10:23.367Z,0.00
2022-10-19T02:11:23.364Z,0.00
2022-10-19T02:12:23.348Z,0.00
2022-10-19T02:13:23.343Z,0.00
2022-10-19T02:14:23.339Z,0.00
2022-10-19T02:15:23.388Z,0.00
2022-10-19T02:16:23.318Z,0.00
2022-10-19T02:17:23.316Z,0.00
2022-10-19T02:18:23.294Z,0.00
2022-10-19T02:20:23.335Z,0.00
2022-10-19T02:21:23.274Z,0.00
2022-10-19T02:22:23.281Z,0.00
2022-10-19T02:23:23.264Z,0.00
2022-10-19T02:24:23.289Z,0.00
2022-10-19T02:25:23.258Z,0.00
2022-10-19T02:26:23.250Z,0.00
2022-10-19T02:27:23.262Z,0.00
2022-10-19T02:28:23.231Z,0.00
2022-10-19T02:29:23.258Z,0.00
2022-10-19T02:30:23.246Z,0.00
2022-10-19T02:31:23.224Z,0.00
2022-10-19T02:32:23.214Z,0.00
2022-10-19T02:33:23.203Z,0.00
2022-10-19T02:34:23.206Z,0.00
2022-10-19T02:35:23.202Z,0.00
2022-10-19T02:36:23.178Z,0.00
2022-10-19T02:37:25.488Z,0.00
2022-10-19T02:38:23.163Z,0.00
2022-10-19T02:39:24.194Z,0.00
2022-10-19T02:40:23.170Z,0.00
2022-10-19T02:41:23.167Z,0.00
2022-10-19T02:42:23.144Z,0.00
2022-10-19T02:43:23.134Z,0.00
2022-10-19T02:44:23.121Z,0.00
2022-10-19T02:45:23.158Z,0.00
2022-10-19T02:46:23.118Z,0.00
2022-10-19T02:47:23.106Z,0.00
2022-10-19T02:48:23.098Z,0.00
2022-10-19T02:49:23.094Z,0.00
2022-10-19T02:50:23.107Z,0.00
2022-10-19T02:51:23.099Z,0.00
2022-10-19T02:52:23.066Z,0.00
2022-10-19T02:53:23.053Z,0.00
2022-10-19T02:54:23.054Z,0.00
2022-10-19T02:55:23.086Z,0.00
2022-10-19T02:56:23.038Z,0.00
2022-10-19T02:57:23.036Z,0.00
2022-10-19T02:58:23.058Z,0.00
2022-10-19T02:59:23.025Z,0.00
2022-10-19T03:00:23.014Z,0.00
2022-10-19T03:01:23.008Z,0.00
2022-10-19T03:02:23.016Z,0.00
2022-10-19T03:03:22.997Z,0.00
2022-10-19T03:04:22.981Z,0.00
2022-10-19T03:05:22.990Z,0.00
2022-10-19T03:06:22.966Z,0.00
2022-10-19T03:07:22.971Z,0.00
2022-10-19T03:08:22.955Z,0.00
2022-10-19T03:09:22.969Z,0.00
2022-10-19T03:10:22.948Z,0.00
2022-10-19T03:11:22.938Z,0.00
2022-10-19T03:12:22.935Z,0.00
2022-10-19T03:13:22.933Z,0.00
2022-10-19T03:14:22.915Z,0.00
2022-10-19T03:15:22.921Z,0.00
2022-10-19T03:16:22.905Z,0.00
2022-10-19T03:17:22.896Z,0.00
2022-10-19T03:18:22.894Z,0.00
2022-10-19T03:19:22.885Z,0.00
2022-10-19T03:20:22.889Z,0.00
2022-10-19T03:21:22.877Z,0.00
2022-10-19T03:22:22.862Z,0.00
2022-10-19T03:23:22.849Z,0.00
2022-10-19T03:24:22.855Z,0.00
2022-10-19T03:25:22.853Z,0.00
2022-10-19T03:26:22.839Z,0.00
2022-10-19T03:27:22.838Z,0.00
2022-10-19T03:28:22.820Z,0.00
2022-10-19T03:29:22.822Z,0.00
2022-10-19T03:30:22.820Z,0.00
2022-10-19T03:31:23.817Z,0.00
2022-10-19T03:32:22.793Z,0.00
2022-10-19T03:33:22.903Z,0.00
2022-10-19T03:34:22.786Z,0.00
2022-10-19T03:35:22.773Z,0.00
2022-10-19T03:36:22.779Z,0.00
2022-10-19T03:37:22.774Z,0.00
2022-10-19T03:38:22.758Z,0.00
2022-10-19T03:39:22.753Z,0.00
2022-10-19T03:40:22.758Z,0.00
2022-10-19T03:41:22.822Z,0.00
2022-10-19T03:42:22.745Z,0.00
2022-10-19T03:43:22.705Z,0.00
2022-10-19T03:44:22.703Z,0.00
2022-10-19T03:45:22.707Z,0.00
2022-10-19T03:46:22.734Z,0.00
2022-10-19T03:47:22.705Z,0.00
2022-10-19T03:48:22.679Z,0.00
2022-10-19T03:49:22.682Z,0.00
2022-10-19T03:50:22.674Z,0.00
2022-10-19T03:51:22.665Z,0.00
2022-10-19T03:52:22.673Z,0.00
2022-10-19T03:53:22.650Z,0.00
2022-10-19T03:54:25.077Z,0.00
2022-10-19T03:55:22.646Z,0.00
2022-10-19T03:56:22.630Z,0.00
2022-10-19T03:57:22.624Z,0.00
2022-10-19T03:58:22.638Z,0.00
2022-10-19T03:59:22.614Z,0.00
2022-10-19T04:00:22.602Z,0.00
2022-10-19T04:01:22.698Z,0.00
2022-10-19T04:02:22.593Z,0.00
2022-10-19T04:03:22.661Z,0.00
2022-10-19T04:04:22.593Z,0.00
2022-10-19T04:05:22.602Z,0.00
2022-10-19T04:06:22.558Z,0.00
2022-10-19T04:07:22.549Z,0.00
2022-10-19T04:08:22.589Z,0.00
2022-10-19T04:09:22.541Z,0.00
2022-10-19T04:10:22.547Z,0.00
2022-10-19T04:11:22.535Z,0.00
2022-10-19T04:12:22.525Z,0.00
2022-10-19T04:13:22.530Z,0.00
2022-10-19T04:14:31.872Z,0.00
2022-10-19T04:15:24.498Z,0.00
2022-10-19T04:16:22.497Z,0.00
2022-10-19T04:17:22.494Z,0.00
2022-10-19T04:18:22.481Z,0.00
2022-10-19T04:19:22.494Z,0.00
2022-10-19T04:20:22.482Z,0.00
2022-10-19T04:21:22.463Z,0.00
2022-10-19T04:22:22.445Z,0.00
2022-10-19T04:23:22.460Z,0.00
2022-10-19T04:24:22.445Z,0.00
2022-10-19T04:25:22.437Z,0.00
2022-10-19T04:26:22.435Z,0.00
2022-10-19T04:27:22.413Z,0.00
2022-10-19T04:28:22.418Z,0.00
2022-10-19T04:29:24.974Z,0.00
2022-10-19T04:30:23.393Z,0.00
2022-10-19T04:31:22.382Z,0.00
2022-10-19T04:32:22.385Z,0.00
2022-10-19T04:33:22.378Z,0.00
2022-10-19T04:34:22.395Z,0.00
2022-10-19T04:35:22.361Z,0.00
2022-10-19T04:36:22.355Z,0.00
2022-10-19T04:37:22.351Z,0.00
2022-10-19T04:38:22.346Z,0.00
2022-10-19T04:39:22.365Z,0.00
2022-10-19T04:40:22.325Z,0.00
2022-10-19T04:41:22.325Z,0.00
2022-10-19T04:42:22.318Z,0.00
2022-10-19T04:43:22.310Z,0.00
2022-10-19T04:45:22.290Z,0.00
2022-10-19T04:46:22.286Z,0.00
2022-10-19T04:47:22.277Z,0.00
2022-10-19T04:48:22.298Z,0.00
2022-10-19T04:49:22.269Z,0.00
2022-10-19T04:50:22.252Z,0.00
2022-10-19T04:51:22.253Z,0.00
2022-10-19T04:52:22.269Z,0.00
2022-10-19T04:53:22.240Z,0.00
2022-10-19T04:54:22.240Z,0.00
2022-10-19T04:55:22.240Z,0.00
2022-10-19T04:56:22.213Z,0.00
2022-10-19T04:57:22.213Z,0.00
2022-10-19T04:58:22.204Z,0.00
2022-10-19T04:59:22.199Z,0.00
2022-10-19T05:00:22.184Z,0.00
2022-10-19T05:01:22.232Z,0.00
2022-10-19T05:02:22.162Z,0.00
2022-10-19T05:03:22.212Z,0.00
2022-10-19T05:04:22.317Z,0.00
2022-10-19T05:05:22.156Z,0.00
2022-10-19T05:06:22.151Z,0.00
2022-10-19T05:07:22.141Z,0.00
2022-10-19T05:08:22.130Z,0.00
2022-10-19T05:09:22.142Z,0.00
2022-10-19T05:10:22.228Z,0.00
2022-10-19T05:11:22.111Z,0.00
2022-10-19T05:12:22.111Z,0.00
2022-10-19T05:13:22.103Z,0.00
2022-10-19T05:14:22.135Z,0.00
2022-10-19T05:15:22.096Z,0.00
2022-10-19T05:16:22.078Z,0.00
2022-10-19T05:17:22.070Z,0.00
2022-10-19T05:18:22.054Z,0.00
2022-10-19T05:19:22.063Z,0.00
2022-10-19T05:20:22.060Z,0.00
2022-10-19T05:21:22.050Z,0.00
2022-10-19T05:22:22.043Z,0.00
2022-10-19T05:23:22.051Z,0.00
2022-10-19T05:24:22.018Z,0.00
2022-10-19T05:25:22.015Z,0.00
2022-10-19T05:26:22.002Z,0.00
2022-10-19T05:27:22.011Z,0.00
2022-10-19T05:28:21.991Z,0.00
2022-10-19T05:29:21.979Z,0.00
2022-10-19T05:30:22.007Z,0.00
2022-10-19T05:31:21.982Z,0.00
2022-10-19T05:32:21.971Z,0.00
2022-10-19T05:33:21.954Z,0.00
2022-10-19T05:34:21.955Z,0.00
2022-10-19T05:35:22.689Z,0.00
2022-10-19T05:36:21.999Z,0.00
2022-10-19T05:37:21.932Z,0.00
2022-10-19T05:38:21.927Z,0.00
2022-10-19T05:39:21.917Z,0.00
2022-10-19T05:40:21.915Z,0.00
2022-10-19T05:41:21.902Z,0.00
2022-10-19T05:42:21.902Z,0.00
2022-10-19T05:43:21.902Z,0.00
2022-10-19T05:44:21.886Z,0.00
2022-10-19T05:45:21.872Z,0.00
2022-10-19T05:46:21.902Z,0.00
2022-10-19T05:47:21.870Z,0.00
2022-10-19T05:48:21.863Z,0.00
2022-10-19T05:49:21.861Z,0.00
2022-10-19T05:50:21.829Z,0.00
2022-10-19T05:51:21.844Z,0.00
2022-10-19T05:52:21.846Z,0.00
2022-10-19T05:53:21.818Z,0.00
2022-10-19T05:54:23.806Z,0.00
2022-10-19T05:55:21.805Z,0.00
2022-10-19T05:56:21.799Z,0.00
2022-10-19T05:57:21.786Z,0.00
2022-10-19T05:58:21.798Z,0.00
2022-10-19T05:59:21.782Z,5.62
2022-10-19T06:00:21.767Z,5.62
2022-10-19T06:01:21.754Z,5.62
2022-10-19T06:02:21.755Z,5.62
2022-10-19T06:03:21.806Z,5.62
2022-10-19T06:04:21.739Z,5.62
2022-10-19T06:05:21.735Z,5.62
2022-10-19T06:06:21.731Z,5.62
2022-10-19T06:07:21.720Z,5.62
2022-10-19T06:08:21.742Z,5.62
2022-10-19T06:09:21.711Z,5.62
2022-10-19T06:10:21.710Z,5.62
2022-10-19T06:11:21.694Z,11.25
2022-10-19T06:12:24.960Z,11.25
2022-10-19T06:13:22.733Z,11.25
2022-10-19T06:14:21.800Z,11.25
2022-10-19T06:15:21.662Z,11.25
2022-10-19T06:16:21.660Z,11.25
2022-10-19T06:17:21.653Z,11.25
2022-10-19T06:18:21.638Z,11.25
2022-10-19T06:19:21.643Z,11.25
2022-10-19T06:20:21.638Z,11.25
2022-10-19T06:21:21.622Z,16.88
2022-10-19T06:22:21.620Z,16.88
2022-10-19T06:23:21.602Z,16.88
2022-10-19T06:24:21.614Z,16.88
2022-10-19T06:25:21.590Z,16.88
2022-10-19T06:26:21.578Z,16.88
2022-10-19T06:27:21.632Z,22.50
2022-10-19T06:28:21.574Z,22.50
2022-10-19T06:29:21.577Z,22.50
2022-10-19T06:30:21.649Z,22.50
2022-10-19T06:31:21.550Z,22.50
2022-10-19T06:32:21.534Z,28.12
2022-10-19T06:33:21.532Z,28.12
2022-10-19T06:34:21.619Z,28.12
2022-10-19T06:35:21.545Z,28.12
2022-10-19T06:36:21.514Z,28.12
2022-10-19T06:37:21.505Z,28.12
2022-10-19T06:38:21.493Z,28.12
2022-10-19T06:39:21.494Z,33.75
2022-10-19T06:40:21.531Z,33.75
2022-10-19T06:41:21.477Z,33.75
2022-10-19T06:42:21.473Z,33.75
2022-10-19T06:43:21.461Z,33.75
2022-10-19T06:44:21.456Z,33.75
2022-10-19T06:45:21.470Z,33.75
2022-10-19T06:46:21.437Z,33.75
2022-10-19T06:47:21.430Z,33.75
2022-10-19T06:48:21.438Z,33.75
2022-10-19T06:49:21.415Z,33.75
2022-10-19T06:50:21.417Z,39.38
2022-10-19T06:51:21.405Z,33.75
2022-10-19T06:52:21.394Z,33.75
2022-10-19T06:53:21.391Z,33.75
2022-10-19T06:54:21.389Z,39.38
2022-10-19T06:55:21.414Z,39.38
2022-10-19T06:56:21.405Z,39.38
2022-10-19T06:57:21.540Z,39.38
2022-10-19T06:58:21.353Z,39.38
2022-10-19T06:59:21.395Z,45.00
2022-10-19T07:00:21.349Z,45.00
2022-10-19T07:01:21.407Z,45.00
2022-10-19T07:02:21.325Z,45.00
2022-10-19T07:03:21.362Z,45.00
2022-10-19T07:04:21.305Z,45.00
2022-10-19T07:05:21.302Z,39.38
2022-10-19T07:06:21.317Z,39.38
2022-10-19T07:07:21.286Z,45.00
2022-10-19T07:08:21.289Z,45.00
2022-10-19T07:09:21.262Z,45.00
2022-10-19T07:10:21.290Z,45.00
2022-10-19T07:11:21.262Z,45.00
2022-10-19T07:12:21.258Z,50.62
2022-10-19T07:13:21.291Z,50.62
2022-10-19T07:14:21.241Z,56.25
2022-10-19T07:15:21.230Z,56.25
2022-10-19T07:16:21.737Z,61.88
2022-10-19T07:17:21.213Z,61.88
2022-10-19T07:18:21.230Z,67.50
2022-10-19T07:19:21.201Z,73.12
2022-10-19T07:20:21.190Z,73.12
2022-10-19T07:21:21.181Z,67.50
2022-10-19T07:22:25.770Z,61.88
2022-10-19T07:23:23.184Z,56.25
2022-10-19T07:24:21.165Z,56.25
2022-10-19T07:25:21.157Z,56.25
2022-10-19T07:26:21.155Z,61.88
2022-10-19T07:27:21.175Z,61.88
2022-10-19T07:28:21.150Z,67.50
2022-10-19T07:29:21.123Z,61.88
2022-10-19T07:30:21.126Z,67.50
2022-10-19T07:31:21.122Z,67.50
2022-10-19T07:32:21.118Z,67.50
2022-10-19T07:33:21.101Z,73.12
2022-10-19T07:34:24.164Z,84.38
2022-10-19T07:35:22.094Z,90.00
2022-10-19T07:36:21.084Z,90.00
2022-10-19T07:37:21.080Z,90.00
2022-10-19T07:38:21.101Z,90.00
2022-10-19T07:39:21.069Z,84.38
2022-10-19T07:40:21.074Z,90.00
2022-10-19T07:41:21.058Z,101.25
2022-10-19T07:43:21.033Z,101.25
2022-10-19T07:44:21.022Z,112.50
2022-10-19T07:45:21.028Z,118.12
2022-10-19T07:46:21.024Z,140.62
2022-10-19T07:47:21.017Z,129.38
2022-10-19T07:48:20.998Z,135.00
2022-10-19T07:49:21.048Z,129.38
2022-10-19T07:50:21.019Z,151.88
2022-10-19T07:51:21.049Z,168.75
2022-10-19T07:52:20.973Z,174.38
2022-10-19T07:53:20.972Z,208.12
2022-10-19T07:54:20.960Z,202.50
2022-10-19T07:55:20.964Z,174.38
2022-10-19T07:56:20.965Z,163.12
2022-10-19T07:57:20.940Z,168.75
2022-10-19T07:58:20.941Z,140.62
2022-10-19T07:59:20.929Z,174.38
2022-10-19T08:00:20.961Z,196.88
2022-10-19T08:01:20.933Z,202.50
2022-10-19T08:02:20.995Z,180.00
2022-10-19T08:05:22.926Z,213.75
2022-10-19T08:06:20.929Z,196.88
2022-10-19T08:07:20.893Z,185.62
2022-10-19T08:08:20.874Z,180.00
2022-10-19T08:09:50.924Z,191.25
2022-10-19T08:10:22.872Z,180.00
2022-10-19T08:11:20.858Z,163.12
2022-10-19T08:12:20.849Z,163.12
2022-10-19T08:13:20.876Z,174.38
2022-10-19T08:14:20.838Z,174.38
2022-10-19T08:15:20.830Z,185.62
2022-10-19T08:16:20.828Z,191.25
2022-10-19T08:17:20.885Z,202.50
2022-10-19T08:18:20.815Z,219.38
2022-10-19T08:19:20.805Z,219.38
2022-10-19T08:20:20.802Z,196.88
2022-10-19T08:21:20.813Z,180.00
2022-10-19T08:22:20.797Z,180.00
2022-10-19T08:23:20.802Z,196.88
2022-10-19T08:24:20.777Z,219.38
2022-10-19T08:25:20.768Z,241.88
2022-10-19T08:26:20.760Z,253.12
2022-10-19T08:27:20.753Z,258.75
2022-10-19T08:28:20.757Z,275.62
2022-10-19T08:29:20.781Z,309.38
2022-10-19T08:30:20.797Z,348.75
2022-10-19T08:31:20.729Z,393.75
2022-10-19T08:32:20.722Z,433.12
2022-10-19T08:33:20.721Z,371.25
2022-10-19T08:34:20.736Z,337.50
2022-10-19T08:35:20.700Z,315.00
2022-10-19T08:36:20.702Z,337.50
2022-10-19T08:37:40.090Z,360.00
2022-10-19T08:38:21.679Z,410.62
2022-10-19T08:39:20.680Z,365.62
2022-10-19T08:40:20.720Z,326.25
2022-10-19T08:41:20.652Z,286.88
2022-10-19T08:42:20.645Z,303.75
2022-10-19T08:43:20.653Z,320.62
2022-10-19T08:44:20.649Z,337.50
2022-10-19T08:45:20.655Z,360.00
2022-10-19T08:46:20.621Z,393.75
2022-10-19T08:47:33.238Z,376.88
2022-10-19T08:48:22.608Z,354.38
2022-10-19T08:49:20.599Z,343.12
2022-10-19T08:50:20.636Z,365.62
2022-10-19T08:51:20.589Z,450.00
2022-10-19T08:52:20.590Z,534.38
2022-10-19T08:53:20.568Z,540.00
2022-10-19T08:54:20.556Z,568.12
2022-10-19T08:55:20.762Z,686.25
2022-10-19T08:56:38.787Z,630.00
2022-10-19T08:57:22.564Z,849.38
2022-10-19T08:58:20.564Z,652.50
2022-10-19T08:59:20.527Z,675.00
2022-10-19T09:00:20.552Z,635.62
2022-10-19T09:01:20.528Z,646.88
2022-10-19T09:02:20.519Z,540.00
2022-10-19T09:03:32.088Z,1485.00
2022-10-19T09:04:21.501Z,1738.12
2022-10-19T09:05:20.485Z,1164.38
2022-10-19T09:06:20.499Z,590.62
2022-10-19T09:07:20.488Z,478.12
2022-10-19T09:08:20.468Z,511.88
2022-10-19T09:09:20.452Z,421.88
2022-10-19T09:10:20.556Z,967.50
2022-10-19T09:11:20.448Z,523.12
2022-10-19T09:12:20.442Z,551.25
2022-10-19T09:13:20.451Z,326.25
2022-10-19T09:14:20.445Z,281.25
2022-10-19T09:15:20.442Z,258.75
2022-10-19T09:16:20.416Z,247.50
2022-10-19T09:17:20.410Z,225.00
2022-10-19T09:18:20.400Z,225.00
2022-10-19T09:19:20.401Z,230.62
2022-10-19T09:20:20.388Z,230.62
2022-10-19T09:21:20.382Z,230.62
2022-10-19T09:22:20.372Z,236.25
2022-10-19T09:23:20.372Z,241.88
2022-10-19T09:24:20.372Z,258.75
2022-10-19T09:25:20.356Z,270.00
2022-10-19T09:26:20.348Z,281.25
2022-10-19T09:27:20.345Z,292.50
2022-10-19T09:28:20.328Z,309.38
2022-10-19T09:29:20.372Z,315.00
2022-10-19T09:30:20.339Z,309.38
2022-10-19T09:31:20.328Z,303.75
2022-10-19T09:32:20.304Z,315.00
2022-10-19T09:33:20.300Z,337.50
2022-10-19T09:34:20.304Z,365.62
2022-10-19T09:35:20.304Z,416.25
2022-10-19T09:36:23.051Z,444.38
2022-10-19T09:37:25.970Z,461.25
2022-10-19T09:38:22.272Z,472.50
2022-10-19T09:39:20.260Z,489.38
2022-10-19T09:40:20.268Z,506.25
2022-10-19T09:41:20.252Z,517.50
2022-10-19T09:42:20.245Z,489.38
2022-10-19T09:43:20.250Z,489.38
2022-10-19T09:44:20.227Z,483.75
2022-10-19T09:45:20.243Z,495.00
2022-10-19T09:46:20.604Z,489.38
2022-10-19T09:47:21.216Z,483.75
2022-10-19T09:48:20.204Z,478.12
2022-10-19T09:49:20.201Z,472.50
2022-10-19T09:50:20.231Z,478.12
2022-10-19T09:51:20.183Z,466.88
2022-10-19T09:52:20.183Z,455.62
2022-10-19T09:53:20.177Z,450.00
2022-10-19T09:54:20.177Z,444.38
2022-10-19T09:55:20.160Z,450.00
2022-10-19T09:56:20.169Z,461.25
2022-10-19T09:57:20.161Z,483.75
2022-10-19T09:58:21.147Z,500.62
2022-10-19T09:59:20.139Z,517.50
2022-10-19T10:00:20.136Z,540.00
2022-10-19T10:01:20.147Z,562.50
2022-10-19T10:02:20.128Z,607.50
2022-10-19T10:03:20.122Z,652.50
2022-10-19T10:04:20.116Z,759.38
2022-10-19T10:05:20.104Z,871.88
2022-10-19T10:06:20.133Z,1423.12
2022-10-19T10:07:20.089Z,1113.75
2022-10-19T10:08:20.084Z,1203.75
2022-10-19T10:09:20.067Z,1288.12
2022-10-19T10:10:20.079Z,1096.88
2022-10-19T10:11:20.077Z,1040.62
2022-10-19T10:12:20.052Z,922.50
2022-10-19T10:13:20.054Z,900.00
2022-10-19T10:14:20.035Z,860.62
2022-10-19T10:15:20.039Z,855.00
2022-10-19T10:16:20.049Z,888.75
2022-10-19T10:17:20.018Z,826.88
2022-10-19T10:18:20.017Z,849.38
2022-10-19T10:19:23.108Z,922.50
2022-10-19T10:20:20.000Z,2446.88
2022-10-19T10:21:25.179Z,2013.75
2022-10-19T10:22:22.001Z,2587.50
2022-10-19T10:23:19.980Z,1991.25
2022-10-19T10:24:19.963Z,1276.88
2022-10-19T10:25:19.967Z,1608.75
2022-10-19T10:26:19.983Z,1321.88
2022-10-19T10:27:19.947Z,1153.12
2022-10-19T10:28:19.947Z,1839.38
2022-10-19T10:29:19.936Z,1625.62
2022-10-19T10:30:19.931Z,1198.12
2022-10-19T10:31:19.952Z,1147.50
2022-10-19T10:32:19.934Z,1029.38
2022-10-19T10:33:27.279Z,928.12
2022-10-19T10:34:28.514Z,810.00
2022-10-19T10:35:21.907Z,765.00
2022-10-19T10:36:19.904Z,781.88
2022-10-19T10:37:19.940Z,984.38
2022-10-19T10:38:19.876Z,731.25
2022-10-19T10:39:19.876Z,618.75
2022-10-19T10:40:23.286Z,585.00
2022-10-19T10:41:20.868Z,517.50
2022-10-19T10:42:19.847Z,506.25
2022-10-19T10:43:19.867Z,500.62
2022-10-19T10:44:19.840Z,506.25
2022-10-19T10:45:19.831Z,511.88
2022-10-19T10:46:19.819Z,517.50
2022-10-19T10:47:19.815Z,556.88
2022-10-19T10:48:19.832Z,579.38
2022-10-19T10:49:19.796Z,613.12
2022-10-19T10:50:19.796Z,765.00
2022-10-19T10:51:19.794Z,798.75
2022-10-19T10:52:19.795Z,2165.62
2022-10-19T10:53:19.775Z,2154.38
2022-10-19T10:54:19.770Z,2446.88
2022-10-19T10:55:19.773Z,1946.25
2022-10-19T10:56:19.764Z,1057.50
2022-10-19T10:57:19.824Z,680.62
2022-10-19T10:58:19.743Z,1980.00
2022-10-19T10:59:19.744Z,804.38
2022-10-19T11:00:19.773Z,1243.12
2022-10-19T11:01:19.758Z,618.75
2022-10-19T11:02:19.760Z,466.88
2022-10-19T11:03:19.747Z,399.38
2022-10-19T11:04:19.711Z,365.62
2022-10-19T11:05:19.711Z,348.75
2022-10-19T11:06:19.744Z,326.25
2022-10-19T11:07:19.713Z,303.75
2022-10-19T11:08:19.700Z,292.50
2022-10-19T11:09:20.682Z,286.88
2022-10-19T11:10:19.683Z,286.88
2022-10-19T11:11:19.667Z,298.12
2022-10-19T11:12:19.671Z,315.00
2022-10-19T11:13:19.647Z,343.12
2022-10-19T11:14:19.663Z,388.12
2022-10-19T11:15:19.715Z,438.75
2022-10-19T11:16:19.644Z,500.62
2022-10-19T11:17:19.637Z,596.25
2022-10-19T11:18:19.625Z,1726.88
2022-10-19T11:19:19.654Z,843.75
2022-10-19T11:20:19.628Z,1119.38
2022-10-19T11:21:19.620Z,781.88
2022-10-19T11:22:22.427Z,596.25
2022-10-19T11:23:21.596Z,607.50
2022-10-19T11:24:19.685Z,596.25
2022-10-19T11:25:19.619Z,675.00
2022-10-19T11:26:19.582Z,877.50
2022-10-19T11:27:19.564Z,1170.00
2022-10-19T11:28:19.560Z,1777.50
2022-10-19T11:29:19.552Z,1980.00
2022-10-19T11:30:20.191Z,1108.12
2022-10-19T11:31:19.626Z,601.88
2022-10-19T11:32:19.530Z,556.88
2022-10-19T11:33:19.560Z,540.00
2022-10-19T11:34:23.620Z,725.62
2022-10-19T11:35:20.526Z,1411.88
2022-10-19T11:36:19.510Z,663.75
2022-10-19T11:37:19.512Z,691.88
2022-10-19T11:38:22.107Z,697.50
2022-10-19T11:39:20.503Z,742.50
2022-10-19T11:40:22.094Z,770.62
2022-10-19T11:41:20.491Z,1001.25
2022-10-19T11:42:19.474Z,821.25
2022-10-19T11:43:20.454Z,1338.75
2022-10-19T11:44:20.159Z,883.12
2022-10-19T11:45:19.467Z,1350.00
2022-10-19T11:46:19.454Z,866.25
2022-10-19T11:47:19.456Z,1974.38
2022-10-19T11:48:19.466Z,2086.88
2022-10-19T11:49:19.431Z,1743.75
2022-10-19T11:50:19.425Z,2171.25
2022-10-19T11:51:21.737Z,2036.25
2022-10-19T11:52:21.196Z,2019.38
2022-10-19T11:53:19.427Z,1271.25
2022-10-19T11:54:19.407Z,2283.75
2022-10-19T11:55:19.412Z,1771.88
2022-10-19T11:56:19.414Z,1068.75
2022-10-19T11:57:19.410Z,2126.25
2022-10-19T11:58:19.382Z,2233.12
2022-10-19T11:59:19.378Z,2390.62
2022-10-19T12:00:39.170Z,933.75
2022-10-19T12:01:21.410Z,731.25
2022-10-19T12:02:19.449Z,1541.25
2022-10-19T12:03:19.355Z,2430.00
2022-10-19T12:04:19.343Z,2379.38
2022-10-19T12:05:19.338Z,2491.88
2022-10-19T12:06:19.363Z,1873.12
2022-10-19T12:07:19.339Z,2148.75
2022-10-19T12:09:21.201Z,2452.50
2022-10-19T12:10:19.334Z,2148.75
2022-10-19T12:11:19.303Z,911.25
2022-10-19T12:12:20.310Z,793.12
2022-10-19T12:13:19.294Z,1023.75
2022-10-19T12:14:19.285Z,1946.25
2022-10-19T12:15:19.298Z,1951.88
2022-10-19T12:16:19.283Z,1895.62
2022-10-19T12:17:19.284Z,1890.00
2022-10-19T12:18:19.271Z,1710.00
2022-10-19T12:19:19.265Z,1996.88
2022-10-19T12:20:19.920Z,2193.75
2022-10-19T12:21:19.255Z,1951.88
2022-10-19T12:22:19.259Z,2002.50
2022-10-19T12:23:19.243Z,2109.38
2022-10-19T12:24:19.227Z,1991.25
2022-10-19T12:25:19.225Z,1816.88
2022-10-19T12:27:20.229Z,1901.25
2022-10-19T12:28:19.220Z,1783.12
2022-10-19T12:29:20.261Z,1771.88
2022-10-19T12:30:19.253Z,1805.62
2022-10-19T12:31:19.191Z,1659.38
2022-10-19T12:32:19.199Z,1653.75
2022-10-19T12:33:19.191Z,1631.25
2022-10-19T12:34:19.175Z,1681.88
2022-10-19T12:36:19.172Z,1738.12
2022-10-19T12:37:19.172Z,1653.75
2022-10-19T12:38:19.164Z,1642.50
2022-10-19T12:39:19.152Z,1816.88
2022-10-19T12:40:19.138Z,1316.25
2022-10-19T12:41:19.143Z,1490.62
2022-10-19T12:42:19.142Z,1215.00
2022-10-19T12:43:20.227Z,1963.12
2022-10-19T12:44:19.152Z,1389.38
2022-10-19T12:45:19.120Z,911.25
2022-10-19T12:46:19.134Z,748.12
2022-10-19T12:47:19.103Z,680.62
2022-10-19T12:48:19.118Z,523.12
2022-10-19T12:49:19.094Z,466.88
2022-10-19T12:51:19.084Z,483.75
2022-10-19T12:52:19.079Z,517.50
2022-10-19T12:53:19.116Z,506.25
2022-10-19T12:54:19.071Z,528.75
2022-10-19T12:55:19.065Z,568.12
2022-10-19T12:56:19.049Z,1378.12
2022-10-19T12:57:22.728Z,1091.25
2022-10-19T12:58:20.050Z,928.12
2022-10-19T12:59:19.053Z,680.62
2022-10-19T13:00:19.034Z,1248.75